Time;durP1;ratioP1;P1;durP2;ratioP2;P2;SDS_P1;SDS_P2;PMS_P1;PMS_P2;Temp;Humidity;BMP_temperature;BMP_pressure;BME280_temperature;BME280_humidity;BME280_pressure;Samples;Min_cycle;Max_cycle;Signal;HPM_P1;HPM_P2
2022/11/20 00:01:10;;;;;;;19.13;12.85;;;2.20;73.10;;;;;;5015110;28;20097;-74
2022/11/20 00:03:35;;;;;;;18.85;12.55;;;2.20;73.10;;;;;;5024662;28;20033;-73
2022/11/20 00:06:03;;;;;;;22.20;13.05;;;2.20;72.80;;;;;;5010183;28;20040;-74
2022/11/20 00:08:29;;;;;;;17.65;11.30;;;2.20;72.90;;;;;;5028208;28;20025;-75
2022/11/20 00:10:54;;;;;;;19.35;12.65;;;2.20;72.70;;;;;;5008283;28;20092;-74
2022/11/20 00:13:20;;;;;;;18.63;12.60;;;2.20;72.70;;;;;;5019852;28;20862;-76
2022/11/20 00:15:45;;;;;;;24.23;13.77;;;2.20;72.80;;;;;;5027726;28;20430;-75
2022/11/20 00:18:11;;;;;;;18.92;12.02;;;2.20;72.80;;;;;;5017966;28;20026;-74
2022/11/20 00:20:37;;;;;;;19.95;13.00;;;2.20;73.00;;;;;;5010968;28;20026;-76
2022/11/20 00:23:02;;;;;;;21.15;13.20;;;2.10;73.10;;;;;;5023216;28;20021;-73
2022/11/20 00:25:28;;;;;;;19.60;12.70;;;2.10;73.10;;;;;;5028911;28;20471;-75
2022/11/20 00:27:53;;;;;;;20.77;13.20;;;2.10;73.10;;;;;;5027824;28;20056;-75
2022/11/20 00:30:21;;;;;;;19.20;11.73;;;2.10;73.30;;;;;;5022200;28;20030;-76
2022/11/20 00:32:47;;;;;;;18.63;11.80;;;2.10;73.10;;;;;;5019020;28;20052;-76
2022/11/20 00:35:12;;;;;;;22.50;12.27;;;2.10;73.10;;;;;;5020982;28;20141;-76
2022/11/20 00:37:38;;;;;;;21.02;12.43;;;2.00;73.00;;;;;;5015215;28;20102;-74
2022/11/20 00:40:04;;;;;;;23.38;11.98;;;2.00;73.00;;;;;;5016185;28;20175;-74
2022/11/20 00:42:32;;;;;;;20.65;11.98;;;2.00;73.50;;;;;;5015783;28;20032;-75
2022/11/20 00:44:58;;;;;;;19.65;13.20;;;2.00;73.50;;;;;;5026673;28;20246;-74
2022/11/20 00:47:23;;;;;;;21.60;14.15;;;2.00;73.30;;;;;;5025787;28;20112;-76
2022/11/20 00:49:49;;;;;;;20.40;13.32;;;2.00;73.50;;;;;;5025067;28;20021;-74
2022/11/20 00:52:15;;;;;;;23.05;13.05;;;1.90;73.70;;;;;;5012187;28;20057;-76
2022/11/20 00:54:40;;;;;;;18.08;11.93;;;2.00;73.80;;;;;;5027420;28;20032;-75
2022/11/20 00:57:06;;;;;;;19.15;12.93;;;1.90;73.80;;;;;;5022882;28;20034;-75
2022/11/20 00:59:32;;;;;;;20.23;12.57;;;1.90;74.30;;;;;;5025071;28;20022;-75
2022/11/20 01:01:57;;;;;;;20.70;13.43;;;1.90;74.30;;;;;;5014657;28;20030;-75
2022/11/20 01:04:24;;;;;;;20.83;13.15;;;1.80;74.60;;;;;;5027543;28;20053;-75
2022/11/20 01:06:51;;;;;;;22.23;13.23;;;1.80;74.70;;;;;;5012308;28;20064;-75
2022/11/20 01:09:16;;;;;;;25.40;12.90;;;1.80;74.90;;;;;;5018079;28;20009;-75
2022/11/20 01:11:44;;;;;;;23.50;13.07;;;1.80;75.10;;;;;;5027012;28;20696;-74
2022/11/20 01:14:13;;;;;;;23.23;14.15;;;1.80;75.30;;;;;;5024908;28;20419;-76
2022/11/20 01:16:48;;;;;;;20.92;13.30;;;1.80;75.30;;;;;;5021842;28;20052;-75
2022/11/20 01:19:17;;;;;;;21.83;13.23;;;1.70;75.40;;;;;;5017939;28;20036;-74
2022/11/20 01:21:44;;;;;;;21.50;13.50;;;1.80;75.50;;;;;;5022171;28;20068;-75
2022/11/20 01:24:13;;;;;;;21.85;12.82;;;1.70;75.30;;;;;;5022647;28;20044;-75
2022/11/20 01:26:41;;;;;;;18.48;12.20;;;1.70;75.10;;;;;;5027764;28;20036;-75
2022/11/20 01:29:13;;;;;;;21.02;13.65;;;1.70;75.20;;;;;;5027747;28;20021;-74
2022/11/20 01:31:41;;;;;;;21.05;12.77;;;1.70;75.40;;;;;;5010195;28;20038;-76
2022/11/20 01:34:12;;;;;;;24.02;13.68;;;1.70;75.00;;;;;;5010650;28;20030;-75
2022/11/20 01:36:39;;;;;;;20.90;13.45;;;1.70;75.20;;;;;;5022412;28;20749;-75
2022/11/20 01:39:07;;;;;;;22.15;13.88;;;1.70;75.30;;;;;;5021666;28;20121;-75
2022/11/20 01:44:22;;;;;;;21.67;13.13;;;1.70;75.40;;;;;;5023203;28;20086;-74
2022/11/20 01:47:03;;;;;;;23.33;13.63;;;1.70;75.30;;;;;;5023750;28;20397;-76
2022/11/20 01:49:38;;;;;;;19.45;13.07;;;1.70;75.40;;;;;;5013799;28;20053;-74
2022/11/20 01:52:19;;;;;;;21.17;13.23;;;1.70;75.40;;;;;;5029299;28;20116;-74
2022/11/20 01:54:57;;;;;;;24.52;14.25;;;1.70;75.30;;;;;;5016696;28;20021;-74
2022/11/20 01:57:25;;;;;;;20.35;13.27;;;1.60;75.10;;;;;;5027053;28;20009;-75
2022/11/20 02:00:12;;;;;;;20.83;13.27;;;1.70;75.00;;;;;;5014386;28;20040;-75
2022/11/20 02:02:40;;;;;;;20.55;13.85;;;1.70;75.20;;;;;;5021967;28;20037;-76
2022/11/20 02:05:19;;;;;;;21.52;13.13;;;1.70;75.00;;;;;;5015976;28;20029;-75
2022/11/20 02:07:46;;;;;;;21.95;13.63;;;1.70;75.10;;;;;;5032288;28;20413;-75
2022/11/20 02:10:12;;;;;;;20.35;13.13;;;1.60;74.60;;;;;;5028928;28;20025;-74
2022/11/20 02:15:22;;;;;;;21.17;13.27;;;1.60;75.30;;;;;;5024348;28;20091;-74
2022/11/20 02:17:48;;;;;;;20.80;12.90;;;1.60;75.50;;;;;;5027174;28;20029;-75
2022/11/20 02:20:14;;;;;;;18.88;11.90;;;1.60;75.50;;;;;;5022750;28;20060;-75
2022/11/20 02:22:57;;;;;;;20.02;12.38;;;1.60;75.50;;;;;;5036549;28;20025;-76
2022/11/20 02:25:25;;;;;;;31.63;19.52;;;1.60;75.50;;;;;;5038106;28;20127;-74
2022/11/20 02:27:50;;;;;;;35.95;19.05;;;1.60;75.40;;;;;;5037594;28;20030;-75
2022/11/20 02:30:17;;;;;;;21.77;13.90;;;1.50;75.50;;;;;;5033031;28;20022;-74
2022/11/20 02:32:42;;;;;;;20.63;13.15;;;1.50;75.70;;;;;;5025374;28;20049;-75
2022/11/20 02:35:29;;;;;;;22.92;13.68;;;1.50;75.90;;;;;;5032978;28;20036;-75
2022/11/20 02:37:57;;;;;;;21.15;12.57;;;1.50;75.90;;;;;;5022247;28;20165;-75
2022/11/20 02:40:23;;;;;;;22.50;13.75;;;1.50;75.80;;;;;;5032326;28;20021;-74
2022/11/20 02:42:53;;;;;;;22.58;13.93;;;1.50;75.90;;;;;;5021378;28;20026;-74
2022/11/20 02:45:19;;;;;;;19.88;13.32;;;1.50;76.10;;;;;;5012973;28;20017;-74
2022/11/20 02:47:44;;;;;;;23.05;13.95;;;1.50;76.10;;;;;;5020190;28;20020;-75
2022/11/20 02:50:11;;;;;;;21.42;13.25;;;1.50;76.00;;;;;;5019401;28;20469;-74
2022/11/20 02:52:36;;;;;;;22.10;13.18;;;1.50;75.90;;;;;;5021337;28;20038;-76
2022/11/20 02:55:02;;;;;;;21.92;14.02;;;1.50;76.00;;;;;;5018313;28;20021;-75
2022/11/20 02:57:29;;;;;;;21.23;12.95;;;1.50;75.90;;;;;;5018827;28;20033;-75
2022/11/20 02:59:55;;;;;;;21.55;13.18;;;1.40;75.80;;;;;;5020150;28;20025;-75
2022/11/20 03:02:21;;;;;;;20.25;12.75;;;1.40;75.90;;;;;;5032038;28;20113;-75
2022/11/20 03:04:47;;;;;;;21.13;13.90;;;1.40;76.10;;;;;;5025728;28;20104;-74
2022/11/20 03:07:14;;;;;;;26.85;14.88;;;1.40;76.00;;;;;;5014469;28;20202;-76
2022/11/20 03:09:40;;;;;;;21.10;13.55;;;1.50;76.00;;;;;;5021474;28;20022;-76
2022/11/20 03:12:06;;;;;;;22.70;13.52;;;1.40;76.00;;;;;;5011921;28;20053;-76
2022/11/20 03:14:31;;;;;;;24.98;15.13;;;1.40;75.80;;;;;;5019898;28;20018;-76
2022/11/20 03:16:57;;;;;;;21.48;13.32;;;1.40;75.80;;;;;;5015049;28;20499;-75
2022/11/20 03:19:24;;;;;;;21.60;13.60;;;1.40;75.80;;;;;;5027327;28;20025;-75
2022/11/20 03:21:50;;;;;;;22.85;14.45;;;1.40;75.70;;;;;;5030430;28;20017;-75
2022/11/20 03:24:16;;;;;;;19.48;13.40;;;1.40;75.80;;;;;;5029366;28;20396;-75
2022/11/20 03:26:41;;;;;;;24.48;14.23;;;1.40;75.70;;;;;;5024390;28;20034;-75
2022/11/20 03:29:07;;;;;;;20.67;13.40;;;1.40;75.60;;;;;;5023132;28;20077;-75
2022/11/20 03:31:36;;;;;;;22.02;14.10;;;1.30;75.70;;;;;;5027966;28;20029;-75
2022/11/20 03:34:03;;;;;;;21.67;13.75;;;1.30;76.00;;;;;;5027019;28;20552;-75
2022/11/20 03:36:31;;;;;;;26.48;15.82;;;1.30;75.90;;;;;;5012468;28;20029;-76
2022/11/20 03:38:59;;;;;;;24.17;15.45;;;1.30;76.00;;;;;;5021689;28;20049;-78
2022/11/20 03:41:28;;;;;;;23.48;14.38;;;1.30;76.10;;;;;;5026732;28;20040;-76
2022/11/20 03:43:58;;;;;;;22.83;14.65;;;1.30;76.30;;;;;;5023201;28;20029;-75
2022/11/20 03:46:24;;;;;;;22.02;14.15;;;1.30;76.40;;;;;;5031461;28;20025;-76
2022/11/20 03:48:54;;;;;;;23.75;14.38;;;1.20;76.60;;;;;;5033083;28;20025;-75
2022/11/20 03:51:22;;;;;;;22.92;14.45;;;1.20;76.70;;;;;;5021575;28;20544;-75
2022/11/20 03:53:50;;;;;;;22.10;14.80;;;1.20;76.70;;;;;;5014590;28;20029;-76
2022/11/20 03:56:18;;;;;;;22.58;14.18;;;1.20;76.80;;;;;;5026998;28;20029;-75
2022/11/20 03:58:44;;;;;;;23.50;13.40;;;1.20;76.80;;;;;;5018214;28;20033;-75
2022/11/20 04:01:13;;;;;;;21.48;13.73;;;1.20;76.80;;;;;;5028133;28;20028;-75
2022/11/20 04:03:41;;;;;;;24.52;15.48;;;1.20;76.60;;;;;;5009539;28;20510;-76
2022/11/20 04:06:11;;;;;;;24.73;14.88;;;1.20;76.80;;;;;;5031514;28;20033;-76
2022/11/20 04:08:37;;;;;;;24.27;14.95;;;1.20;77.00;;;;;;5022969;28;20376;-75
2022/11/20 04:11:12;;;;;;;22.63;14.80;;;1.20;77.20;;;;;;5028367;28;20029;-75
2022/11/20 04:13:39;;;;;;;24.55;15.27;;;1.10;77.20;;;;;;5020044;28;20048;-76
2022/11/20 04:16:06;;;;;;;22.55;14.05;;;1.10;77.20;;;;;;5026551;28;20096;-76
2022/11/20 04:18:34;;;;;;;22.48;14.32;;;1.10;77.40;;;;;;5023464;28;20026;-75
2022/11/20 04:21:00;;;;;;;23.20;15.82;;;1.10;77.50;;;;;;5021587;28;20034;-75
2022/11/20 04:23:26;;;;;;;23.35;14.35;;;1.10;77.50;;;;;;5018856;28;20057;-76
2022/11/20 04:25:51;;;;;;;22.88;14.35;;;1.10;77.30;;;;;;5031843;28;20048;-77
2022/11/20 04:28:19;;;;;;;26.30;15.02;;;1.10;77.30;;;;;;5017821;28;20022;-77
2022/11/20 04:30:45;;;;;;;26.75;16.08;;;1.10;77.60;;;;;;5016776;28;20049;-76
2022/11/20 04:33:12;;;;;;;23.90;15.43;;;1.00;77.70;;;;;;5024351;28;20072;-76
2022/11/20 04:35:38;;;;;;;25.30;15.02;;;1.10;77.90;;;;;;5017241;28;20018;-77
2022/11/20 04:38:04;;;;;;;23.70;16.05;;;1.00;77.90;;;;;;5028374;28;20030;-76
2022/11/20 04:40:37;;;;;;;22.42;13.75;;;1.00;77.90;;;;;;5016711;28;20075;-76
2022/11/20 04:43:02;;;;;;;25.63;15.45;;;1.00;78.00;;;;;;5012280;28;20041;-75
2022/11/20 04:45:32;;;;;;;27.70;15.13;;;1.00;78.20;;;;;;5021798;28;20029;-74
2022/11/20 04:47:57;;;;;;;21.98;14.18;;;1.00;78.40;;;;;;5017075;28;20030;-75
2022/11/20 04:50:25;;;;;;;27.85;16.40;;;0.90;78.40;;;;;;5019741;28;20171;-77
2022/11/20 04:52:50;;;;;;;25.15;16.00;;;0.90;78.70;;;;;;5013106;28;20038;-76
2022/11/20 04:55:16;;;;;;;23.52;15.38;;;0.80;78.80;;;;;;5010555;28;20548;-76
2022/11/20 04:57:43;;;;;;;27.15;16.63;;;0.90;79.00;;;;;;5028793;28;20523;-75
2022/11/20 05:00:09;;;;;;;23.38;15.15;;;0.90;79.20;;;;;;5016081;28;20064;-76
2022/11/20 05:02:35;;;;;;;24.13;15.15;;;0.90;79.30;;;;;;5029384;28;20029;-74
2022/11/20 05:05:01;;;;;;;22.83;14.25;;;0.90;79.50;;;;;;5029357;28;20067;-75
2022/11/20 05:07:27;;;;;;;22.23;15.55;;;0.90;79.50;;;;;;5022014;28;20099;-75
2022/11/20 05:09:52;;;;;;;25.40;16.13;;;0.90;79.30;;;;;;5012766;28;20022;-76
2022/11/20 05:12:18;;;;;;;24.42;15.23;;;0.90;79.20;;;;;;5019420;28;20033;-75
2022/11/20 05:14:44;;;;;;;25.05;15.88;;;0.90;79.30;;;;;;5015954;28;20033;-76
2022/11/20 05:17:12;;;;;;;25.65;15.60;;;0.80;79.20;;;;;;5018366;28;20024;-75
2022/11/20 05:19:38;;;;;;;24.85;15.77;;;0.90;79.00;;;;;;5031586;28;20112;-76
2022/11/20 05:22:05;;;;;;;24.38;14.98;;;0.90;78.90;;;;;;5031627;28;20769;-76
2022/11/20 05:24:30;;;;;;;23.42;14.70;;;0.90;78.90;;;;;;5029326;28;20057;-76
2022/11/20 05:26:56;;;;;;;25.92;15.85;;;0.90;78.80;;;;;;5016809;28;20022;-75
2022/11/20 05:29:24;;;;;;;27.80;15.55;;;0.90;78.50;;;;;;5030810;28;20021;-75
2022/11/20 05:31:49;;;;;;;24.10;16.02;;;0.80;78.70;;;;;;5013716;28;20084;-76
2022/11/20 05:34:15;;;;;;;24.85;14.75;;;0.80;79.30;;;;;;5032094;28;20033;-75
2022/11/20 05:36:41;;;;;;;23.08;14.98;;;0.80;78.60;;;;;;5030821;28;20068;-75
2022/11/20 05:39:06;;;;;;;27.17;16.60;;;0.80;78.80;;;;;;5031644;28;20144;-75
2022/11/20 05:41:33;;;;;;;31.30;16.67;;;0.80;79.20;;;;;;5011940;28;20030;-77
2022/11/20 05:43:58;;;;;;;24.70;15.25;;;0.70;79.60;;;;;;5019087;28;20729;-76
2022/11/20 05:46:24;;;;;;;26.20;16.23;;;0.70;79.60;;;;;;5015173;28;20041;-75
2022/11/20 05:48:50;;;;;;;26.48;14.63;;;0.80;79.60;;;;;;5025102;28;20472;-75
2022/11/20 05:51:18;;;;;;;26.40;15.23;;;0.70;79.50;;;;;;5028888;28;20036;-75
2022/11/20 05:53:44;;;;;;;22.67;14.65;;;0.80;79.30;;;;;;5016843;28;20026;-75
2022/11/20 05:56:16;;;;;;;25.23;15.60;;;0.80;79.50;;;;;;5015879;28;20038;-76
2022/11/20 05:58:42;;;;;;;25.52;15.43;;;0.80;79.30;;;;;;5015786;28;20083;-75
2022/11/20 06:01:12;;;;;;;26.15;16.13;;;0.80;79.20;;;;;;5025359;28;20025;-75
2022/11/20 06:03:39;;;;;;;26.38;16.40;;;0.80;79.10;;;;;;5025423;28;20029;-75
2022/11/20 06:06:06;;;;;;;24.35;14.45;;;0.80;79.20;;;;;;5018660;28;20058;-76
2022/11/20 06:08:32;;;;;;;25.80;15.20;;;0.70;79.30;;;;;;5013597;28;20439;-77
2022/11/20 06:10:58;;;;;;;24.75;14.95;;;0.80;79.30;;;;;;5029851;28;20377;-75
2022/11/20 06:13:24;;;;;;;27.67;15.82;;;0.70;78.60;;;;;;5017611;28;20116;-76
2022/11/20 06:15:51;;;;;;;23.95;14.35;;;0.70;78.80;;;;;;5021897;28;20025;-76
2022/11/20 06:18:18;;;;;;;28.00;17.35;;;0.70;79.20;;;;;;5012117;28;20091;-76
2022/11/20 06:20:44;;;;;;;26.05;15.98;;;0.70;79.30;;;;;;5025846;28;20025;-75
2022/11/20 06:23:09;;;;;;;25.42;15.95;;;0.70;79.60;;;;;;5014502;28;20063;-75
2022/11/20 06:25:39;;;;;;;25.42;16.20;;;0.70;79.60;;;;;;5019025;28;20084;-75
2022/11/20 06:28:05;;;;;;;27.27;16.80;;;0.70;79.20;;;;;;5013175;28;20030;-76
2022/11/20 06:30:32;;;;;;;29.27;16.25;;;0.70;78.90;;;;;;5029685;28;20032;-74
2022/11/20 06:32:58;;;;;;;27.85;16.95;;;0.70;79.50;;;;;;5014418;28;20044;-75
2022/11/20 06:35:23;;;;;;;28.73;17.75;;;0.70;79.70;;;;;;5014842;28;20496;-76
2022/11/20 06:37:49;;;;;;;26.98;16.90;;;0.70;79.80;;;;;;5013268;28;20480;-76
2022/11/20 06:40:15;;;;;;;29.33;17.58;;;0.70;79.80;;;;;;5013673;28;20030;-75
2022/11/20 06:42:40;;;;;;;29.40;17.27;;;0.70;79.70;;;;;;5010282;28;20548;-74
2022/11/20 06:45:06;;;;;;;29.00;16.88;;;0.70;79.60;;;;;;5028701;28;20036;-75
2022/11/20 06:47:33;;;;;;;26.60;17.20;;;0.70;79.70;;;;;;5019539;28;20053;-74
2022/11/20 06:49:58;;;;;;;30.42;17.90;;;0.70;79.70;;;;;;5016863;28;20880;-74
2022/11/20 06:52:24;;;;;;;27.33;17.20;;;0.70;79.60;;;;;;5030495;28;20082;-76
2022/11/20 06:54:49;;;;;;;28.25;16.10;;;0.60;79.60;;;;;;5028370;28;20624;-76
2022/11/20 06:57:15;;;;;;;28.45;18.15;;;0.70;79.80;;;;;;5026847;28;20018;-76
2022/11/20 06:59:41;;;;;;;28.60;18.08;;;0.70;79.80;;;;;;5021120;28;20080;-76
2022/11/20 07:02:11;;;;;;;25.45;16.33;;;0.70;79.80;;;;;;5021306;28;20030;-74
2022/11/20 07:04:37;;;;;;;31.05;17.83;;;0.70;79.70;;;;;;5024795;28;20057;-75
2022/11/20 07:07:02;;;;;;;28.73;18.42;;;0.70;79.60;;;;;;5028793;28;20053;-77
2022/11/20 07:09:28;;;;;;;34.15;18.85;;;0.70;79.30;;;;;;5022650;28;20433;-77
2022/11/20 07:11:54;;;;;;;32.33;19.73;;;0.70;78.90;;;;;;5025623;28;20101;-78
2022/11/20 07:14:19;;;;;;;29.27;17.35;;;0.70;79.10;;;;;;5012809;28;20104;-78
2022/11/20 07:16:45;;;;;;;29.25;18.05;;;0.70;78.90;;;;;;5021709;28;20082;-76
2022/11/20 07:19:11;;;;;;;32.75;19.05;;;0.70;79.50;;;;;;5025544;28;20025;-76
2022/11/20 07:21:36;;;;;;;27.75;17.38;;;0.70;79.60;;;;;;5021827;28;20036;-76
2022/11/20 07:24:02;;;;;;;30.83;19.30;;;0.80;87.30;;;;;;5021164;28;20029;-77
2022/11/20 07:26:28;;;;;;;33.33;19.52;;;0.80;83.10;;;;;;5018620;28;20018;-76
2022/11/20 07:28:53;;;;;;;32.35;20.63;;;0.90;81.50;;;;;;5017316;28;20065;-78
2022/11/20 07:31:19;;;;;;;31.52;19.35;;;0.90;80.70;;;;;;5015377;28;20079;-78
2022/11/20 07:33:45;;;;;;;29.40;19.05;;;0.90;80.30;;;;;;5015416;28;20087;-77
2022/11/20 07:36:11;;;;;;;31.40;19.63;;;0.90;80.10;;;;;;5012727;28;20148;-76
2022/11/20 07:38:37;;;;;;;32.55;19.40;;;0.90;80.10;;;;;;5012175;28;20014;-78
2022/11/20 07:41:03;;;;;;;28.30;18.13;;;1.00;80.20;;;;;;5016003;28;20113;-77
2022/11/20 07:43:28;;;;;;;31.73;19.63;;;1.00;80.00;;;;;;5023531;28;20172;-76
2022/11/20 07:45:58;;;;;;;33.17;21.42;;;1.10;80.10;;;;;;5008772;28;20077;-75
2022/11/20 07:48:24;;;;;;;31.52;20.25;;;1.30;80.20;;;;;;5023775;28;20032;-77
2022/11/20 07:50:53;;;;;;;27.33;17.95;;;1.70;80.90;;;;;;5017483;28;20026;-77
2022/11/20 07:53:21;;;;;;;29.13;18.10;;;2.50;78.50;;;;;;5020754;28;20041;-76
2022/11/20 07:55:47;;;;;;;29.42;17.95;;;3.50;74.00;;;;;;5016964;28;20026;-76
2022/11/20 07:58:16;;;;;;;22.42;16.10;;;4.40;70.50;;;;;;5022546;28;20510;-77
2022/11/20 08:00:42;;;;;;;25.77;16.30;;;5.10;67.60;;;;;;5016633;28;20488;-76
2022/11/20 08:03:07;;;;;;;26.38;16.80;;;5.70;65.00;;;;;;5016587;28;20029;-76
2022/11/20 08:05:33;;;;;;;25.92;16.38;;;5.80;63.60;;;;;;5019157;28;20053;-75
2022/11/20 08:07:59;;;;;;;23.77;16.63;;;5.50;65.00;;;;;;5029277;28;20108;-76
2022/11/20 08:10:25;;;;;;;27.02;17.20;;;5.40;65.30;;;;;;5017550;28;20392;-76
2022/11/20 08:15:37;;;;;;;23.08;16.45;;;6.50;62.80;;;;;;5026998;28;20134;-77
2022/11/20 08:18:08;;;;;;;22.10;16.92;;;7.00;60.50;;;;;;5022080;28;20029;-76
2022/11/20 08:20:34;;;;;;;27.58;19.40;;;7.00;59.80;;;;;;5026342;28;20048;-76
2022/11/20 08:23:05;;;;;;;26.08;17.02;;;6.60;60.00;;;;;;5026402;28;20416;-76
2022/11/20 08:25:32;;;;;;;29.45;19.33;;;6.20;61.10;;;;;;5025164;28;20065;-76
2022/11/20 08:27:58;;;;;;;25.10;18.60;;;5.80;62.70;;;;;;5017584;28;20036;-78
2022/11/20 08:30:24;;;;;;;27.25;20.13;;;5.50;64.00;;;;;;5019562;28;20022;-77
2022/11/20 08:32:50;;;;;;;26.48;19.33;;;5.20;65.20;;;;;;5018701;28;20104;-78
2022/11/20 08:35:16;;;;;;;25.95;18.60;;;5.00;67.20;;;;;;5017476;28;20022;-75
2022/11/20 08:37:42;;;;;;;30.15;20.67;;;4.80;67.30;;;;;;5018081;28;20087;-76
2022/11/20 08:40:11;;;;;;;30.70;20.77;;;4.80;67.60;;;;;;5029014;28;20052;-76
2022/11/20 08:42:37;;;;;;;30.75;19.95;;;4.90;68.00;;;;;;5029303;28;20088;-75
2022/11/20 08:45:03;;;;;;;29.65;19.98;;;4.90;67.50;;;;;;5022343;28;20119;-76
2022/11/20 08:47:29;;;;;;;29.98;19.98;;;4.80;67.70;;;;;;5012057;28;20061;-76
2022/11/20 08:49:54;;;;;;;32.38;21.92;;;4.80;68.40;;;;;;5021423;28;20534;-76
2022/11/20 08:52:20;;;;;;;31.80;21.08;;;4.80;68.90;;;;;;5028267;28;20105;-76
2022/11/20 08:54:46;;;;;;;30.48;18.67;;;5.00;69.30;;;;;;5022079;28;20030;-76
2022/11/20 08:57:11;;;;;;;28.00;19.23;;;5.60;67.60;;;;;;5016005;28;20029;-75
2022/11/20 08:59:37;;;;;;;27.55;19.65;;;6.10;65.50;;;;;;5024944;28;20049;-75
2022/11/20 09:02:03;;;;;;;27.95;18.70;;;6.20;63.70;;;;;;5027411;28;20065;-76
2022/11/20 09:04:28;;;;;;;25.42;18.33;;;5.80;64.00;;;;;;5028684;28;20013;-74
2022/11/20 09:06:54;;;;;;;30.73;19.75;;;5.50;65.30;;;;;;5029282;28;20028;-75
2022/11/20 09:09:24;;;;;;;27.80;19.40;;;5.20;66.00;;;;;;5029592;28;20028;-76
2022/11/20 09:11:50;;;;;;;30.50;19.58;;;4.90;66.90;;;;;;5024751;28;20030;-76
2022/11/20 09:14:16;;;;;;;31.75;20.02;;;4.60;68.20;;;;;;5024530;28;20499;-76
2022/11/20 09:16:44;;;;;;;30.27;19.05;;;4.30;69.50;;;;;;5025936;28;20042;-74
2022/11/20 09:19:11;;;;;;;30.40;20.30;;;4.10;69.70;;;;;;5016628;28;20021;-76
2022/11/20 09:21:37;;;;;;;30.38;19.98;;;4.00;70.90;;;;;;5021515;28;20030;-77
2022/11/20 09:24:04;;;;;;;29.95;20.25;;;3.80;71.40;;;;;;5020427;28;20018;-76
2022/11/20 09:26:29;;;;;;;30.55;20.38;;;3.70;72.40;;;;;;5020473;28;20075;-76
2022/11/20 09:28:55;;;;;;;32.42;21.33;;;3.60;73.30;;;;;;5021138;28;20022;-75
2022/11/20 09:31:26;;;;;;;31.63;20.58;;;3.50;73.60;;;;;;5020344;28;20017;-75
2022/11/20 09:33:51;;;;;;;30.90;21.08;;;3.40;74.30;;;;;;5016915;28;20017;-75
2022/11/20 09:36:18;;;;;;;33.55;21.95;;;3.30;75.20;;;;;;5017350;28;20014;-75
2022/11/20 09:38:47;;;;;;;36.70;21.92;;;3.30;75.70;;;;;;5019843;28;20022;-75
2022/11/20 09:41:37;;;;;;;31.67;21.63;;;3.30;76.20;;;;;;5020981;28;20028;-75
2022/11/20 09:44:33;;;;;;;35.83;23.77;;;3.30;76.30;;;;;;5014224;28;20113;-75
2022/11/20 09:47:28;;;;;;;31.50;21.67;;;3.40;76.60;;;;;;5018740;28;20408;-75
2022/11/20 09:50:31;;;;;;;33.42;21.67;;;3.40;76.30;;;;;;5012189;28;20099;-75
2022/11/20 09:53:29;;;;;;;38.72;22.98;;;3.40;76.00;;;;;;5024876;28;20075;-75
2022/11/20 09:55:56;;;;;;;40.03;23.77;;;3.40;76.70;;;;;;4990600;28;20536;-74
2022/11/20 09:58:39;;;;;;;35.75;23.63;;;3.40;76.90;;;;;;5025416;28;20357;-79
2022/11/20 10:01:25;;;;;;;35.42;22.60;;;3.50;76.60;;;;;;5011723;28;20032;-77
2022/11/20 10:04:10;;;;;;;33.08;21.63;;;3.50;76.70;;;;;;5022405;28;20036;-75
2022/11/20 10:07:04;;;;;;;33.00;23.30;;;3.60;76.80;;;;;;5028302;28;20539;-74
2022/11/20 10:09:38;;;;;;;36.75;22.70;;;3.50;76.30;;;;;;5019147;28;20026;-75
2022/11/20 10:12:10;;;;;;;33.25;21.98;;;3.50;76.50;;;;;;5020466;28;20031;-75
2022/11/20 10:14:58;;;;;;;33.63;22.38;;;3.50;76.30;;;;;;5028646;28;20037;-76
2022/11/20 10:17:29;;;;;;;34.40;22.75;;;3.60;76.40;;;;;;5021656;28;20029;-75
2022/11/20 10:20:14;;;;;;;32.72;22.23;;;3.70;76.70;;;;;;5014081;28;20393;-76
2022/11/20 10:23:03;;;;;;;34.45;23.92;;;3.70;76.80;;;;;;5016045;28;20033;-75
2022/11/20 10:25:44;;;;;;;40.05;24.30;;;3.90;77.00;;;;;;5011508;28;20088;-75
2022/11/20 10:28:53;;;;;;;36.22;24.27;;;3.90;76.60;;;;;;5021124;28;20017;-75
2022/11/20 10:31:34;;;;;;;33.65;22.30;;;3.90;77.10;;;;;;5010776;28;20044;-76
2022/11/20 10:34:12;;;;;;;39.80;23.95;;;4.00;77.40;;;;;;5015985;28;20034;-75
2022/11/20 10:36:49;;;;;;;32.58;21.80;;;4.00;77.50;;;;;;5028595;28;20048;-76
2022/11/20 10:39:23;;;;;;;36.80;22.80;;;4.00;77.90;;;;;;5029234;28;20131;-75
2022/11/20 10:41:53;;;;;;;31.98;21.45;;;4.10;77.90;;;;;;5015282;28;20025;-77
2022/11/20 10:47:16;;;;;;;33.08;22.92;;;4.30;77.30;;;;;;5019156;28;20044;-75
2022/11/20 10:49:45;;;;;;;35.95;23.83;;;4.30;77.30;;;;;;5029909;28;20033;-75
2022/11/20 10:52:26;;;;;;;31.52;22.35;;;4.30;77.70;;;;;;5026189;28;20040;-75
2022/11/20 10:54:58;;;;;;;33.70;22.48;;;4.40;77.70;;;;;;5028341;28;20033;-75
2022/11/20 10:57:55;;;;;;;34.03;23.15;;;4.40;77.40;;;;;;5017793;28;20049;-76
2022/11/20 11:00:20;;;;;;;33.65;23.70;;;4.40;77.60;;;;;;5026630;28;20021;-75
2022/11/20 11:02:52;;;;;;;35.75;22.83;;;4.40;77.50;;;;;;5026267;28;20091;-75
2022/11/20 11:05:44;;;;;;;39.78;25.52;;;4.40;77.70;;;;;;5027647;28;20116;-75
2022/11/20 11:08:19;;;;;;;36.08;24.88;;;4.30;78.20;;;;;;5021546;28;20028;-75
2022/11/20 11:10:58;;;;;;;35.05;23.52;;;4.40;79.00;;;;;;5028089;28;20030;-74
2022/11/20 11:13:26;;;;;;;35.65;23.42;;;4.40;78.80;;;;;;5011372;28;20045;-75
2022/11/20 11:15:52;;;;;;;36.33;23.35;;;4.50;79.00;;;;;;5026848;28;20025;-74
2022/11/20 11:18:25;;;;;;;35.42;22.20;;;4.50;79.30;;;;;;5011341;28;20025;-75
2022/11/20 11:20:52;;;;;;;39.28;24.65;;;4.60;79.60;;;;;;5027435;28;20117;-75
2022/11/20 11:23:32;;;;;;;35.58;24.90;;;4.70;79.30;;;;;;5022532;28;20540;-74
2022/11/20 11:25:59;;;;;;;35.10;23.10;;;4.70;78.50;;;;;;5024956;28;20160;-74
2022/11/20 11:28:27;;;;;;;33.55;23.10;;;4.70;78.80;;;;;;5019992;28;20037;-75
2022/11/20 11:30:54;;;;;;;33.63;23.27;;;4.70;79.70;;;;;;5027689;28;20021;-76
2022/11/20 11:33:22;;;;;;;34.08;23.45;;;4.70;79.50;;;;;;5018944;28;20091;-74
2022/11/20 11:35:53;;;;;;;34.05;24.10;;;4.80;79.60;;;;;;5022993;28;20422;-76
2022/11/20 11:38:38;;;;;;;34.05;23.10;;;4.80;79.60;;;;;;5028021;28;20104;-75
2022/11/20 11:41:06;;;;;;;41.25;22.65;;;4.80;80.70;;;;;;5021409;28;20033;-77
2022/11/20 11:46:33;;;;;;;26.60;18.48;;;4.90;80.80;;;;;;5028561;28;20071;-75
2022/11/20 11:49:17;;;;;;;31.98;20.58;;;4.90;81.10;;;;;;5028702;28;20107;-76
2022/11/20 11:52:08;;;;;;;31.58;20.85;;;4.90;81.40;;;;;;5028026;28;20029;-75
2022/11/20 11:54:49;;;;;;;35.13;22.90;;;4.80;82.20;;;;;;5016279;28;20044;-76
2022/11/20 11:57:36;;;;;;;35.03;23.98;;;4.80;82.50;;;;;;5023612;28;20040;-75
2022/11/20 12:00:09;;;;;;;35.20;22.90;;;4.80;82.30;;;;;;5026436;28;20616;-75
2022/11/20 12:02:49;;;;;;;33.78;22.65;;;4.80;82.00;;;;;;5028015;28;20068;-76
2022/11/20 12:05:29;;;;;;;39.03;23.30;;;4.80;82.00;;;;;;5017709;28;20125;-77
2022/11/20 12:08:21;;;;;;;33.13;21.35;;;4.80;82.00;;;;;;5020379;28;20797;-76
2022/11/20 12:10:59;;;;;;;34.17;21.63;;;4.70;82.10;;;;;;5020861;28;20025;-74
2022/11/20 12:13:33;;;;;;;34.88;22.15;;;4.70;82.60;;;;;;5017571;28;20041;-75
2022/11/20 12:16:00;;;;;;;35.20;24.65;;;4.70;82.60;;;;;;5026368;28;20476;-75
2022/11/20 12:18:26;;;;;;;37.80;25.17;;;4.70;82.80;;;;;;5026366;28;20030;-75
2022/11/20 12:21:14;;;;;;;35.25;23.20;;;4.70;82.90;;;;;;5015457;28;20022;-76
2022/11/20 12:24:04;;;;;;;39.50;25.27;;;4.70;83.10;;;;;;5022151;28;20039;-76
2022/11/20 12:26:30;;;;;;;;;;;4.70;83.40;;;;;;5026375;28;20047;-75
2022/11/20 12:29:35;;;;;;;42.35;27.25;;;4.80;83.50;;;;;;5016793;28;20016;-73
2022/11/20 12:32:16;;;;;;;42.38;27.75;;;4.70;83.90;;;;;;5014491;28;20042;-75
2022/11/20 12:35:00;;;;;;;42.13;26.40;;;4.80;84.40;;;;;;5021663;28;20034;-75
2022/11/20 12:37:43;;;;;;;37.47;26.52;;;4.80;84.90;;;;;;5015311;28;20026;-74
2022/11/20 12:40:39;;;;;;;39.85;26.63;;;4.80;85.20;;;;;;5018451;28;20095;-74
2022/11/20 12:46:31;;;;;;;31.88;24.55;;;4.70;85.20;;;;;;5018253;28;20899;-74
2022/11/20 12:49:08;;;;;;;37.78;25.85;;;4.70;85.30;;;;;;5014590;28;20303;-74
2022/11/20 12:52:17;;;;;;;37.97;24.83;;;4.80;85.70;;;;;;5010390;28;20032;-74
2022/11/20 12:55:14;;;;;;;33.40;23.38;;;4.80;85.40;;;;;;5013582;28;20105;-74
2022/11/20 12:57:52;;;;;;;35.58;25.88;;;4.80;85.50;;;;;;5021514;28;20021;-73
2022/11/20 13:00:22;;;;;;;35.22;24.77;;;4.80;85.40;;;;;;5015384;28;20395;-73
2022/11/20 13:03:07;;;;;;;34.17;23.25;;;4.90;85.80;;;;;;5017269;28;20022;-74
2022/11/20 13:05:55;;;;;;;36.72;25.52;;;4.90;85.90;;;;;;5018966;28;20428;-74
2022/11/20 13:08:24;;;;;;;33.78;24.67;;;4.80;86.00;;;;;;5015175;28;20033;-74
2022/11/20 13:11:18;;;;;;;36.28;25.40;;;4.80;85.90;;;;;;5017193;28;20087;-74